Time;durP1;ratioP1;P1;durP2;ratioP2;P2;SDS_P1;SDS_P2;PMS_P1;PMS_P2;Temp;Humidity;BMP_temperature;BMP_pressure;BME280_temperature;BME280_humidity;BME280_pressure;Samples;Min_cycle;Max_cycle;Signal;HPM_P1;HPM_P2
2022/10/25 00:02:18;;;;;;;2.93;2.73;;;21.40;48.30;;;;;;5039649;28;20317;-69
2022/10/25 00:04:44;;;;;;;3.10;2.80;;;21.40;48.30;;;;;;5038585;28;20230;-65
2022/10/25 00:07:10;;;;;;;3.03;2.83;;;21.40;48.30;;;;;;5036796;28;20475;-69
2022/10/25 00:09:35;;;;;;;3.03;2.83;;;21.40;48.30;;;;;;5039585;28;20480;-67
2022/10/25 00:12:01;;;;;;;3.17;2.87;;;21.40;48.30;;;;;;5038765;28;20232;-61
2022/10/25 00:14:26;;;;;;;2.97;2.70;;;21.40;48.40;;;;;;5041941;28;20663;-60
2022/10/25 00:16:52;;;;;;;4.37;3.20;;;21.40;48.30;;;;;;5038533;28;20226;-68
2022/10/25 00:19:17;;;;;;;3.00;2.80;;;21.40;48.30;;;;;;5040292;28;20229;-67
2022/10/25 00:21:43;;;;;;;2.47;2.27;;;21.40;48.30;;;;;;5038753;28;20237;-68
2022/10/25 00:24:11;;;;;;;2.47;2.27;;;21.40;48.30;;;;;;5038989;28;20980;-68
2022/10/25 00:26:40;;;;;;;2.97;2.77;;;21.40;48.30;;;;;;5038613;28;20676;-66
2022/10/25 00:29:06;;;;;;;2.47;2.27;;;21.40;48.30;;;;;;5037462;28;20463;-64
2022/10/25 00:31:31;;;;;;;2.77;2.43;;;21.40;48.30;;;;;;5033146;28;20600;-68
2022/10/25 00:33:57;;;;;;;2.00;1.90;;;21.40;48.30;;;;;;5036713;28;20537;-67
2022/10/25 00:36:24;;;;;;;2.37;2.17;;;21.40;48.30;;;;;;5033799;28;20606;-67
2022/10/25 00:38:51;;;;;;;2.40;2.20;;;21.40;48.30;;;;;;5035622;28;20262;-67
2022/10/25 00:41:23;;;;;;;2.57;2.37;;;21.40;48.30;;;;;;5036531;28;21434;-66
2022/10/25 00:43:51;;;;;;;2.70;2.50;;;21.40;48.30;;;;;;5039030;28;20458;-67
2022/10/25 00:46:16;;;;;;;2.80;2.40;;;21.40;48.30;;;;;;5037457;28;21057;-68
2022/10/25 00:48:58;;;;;;;3.40;2.30;;;21.40;48.30;;;;;;5036592;28;20501;-68
2022/10/25 00:51:58;;;;;;;2.00;1.90;;;21.40;48.30;;;;;;5028763;28;20238;-67
2022/10/25 00:54:28;;;;;;;2.50;2.30;;;21.40;48.30;;;;;;5042394;28;20442;-70
2022/10/25 00:56:57;;;;;;;1.97;1.87;;;21.40;48.30;;;;;;5040910;28;20803;-63
2022/10/25 00:59:26;;;;;;;2.20;2.00;;;21.40;48.40;;;;;;5036722;28;20462;-67
2022/10/25 01:01:53;;;;;;;2.07;1.93;;;21.40;48.30;;;;;;5030552;28;20448;-67
2022/10/25 01:04:23;;;;;;;2.17;2.07;;;21.40;48.30;;;;;;5040762;28;20467;-69
2022/10/25 01:06:50;;;;;;;2.40;2.20;;;21.40;48.30;;;;;;5036176;28;20474;-69
2022/10/25 01:09:23;;;;;;;3.23;2.00;;;21.40;48.40;;;;;;5039660;28;20458;-64
2022/10/25 01:11:48;;;;;;;3.30;2.70;;;21.40;48.30;;;;;;5038667;28;20452;-69
2022/10/25 01:14:15;;;;;;;2.53;2.33;;;21.40;48.30;;;;;;5039321;28;20880;-69
2022/10/25 01:16:55;;;;;;;1.90;1.80;;;21.40;48.30;;;;;;5038855;28;20303;-69
2022/10/25 01:19:54;;;;;;;2.10;2.00;;;21.40;48.30;;;;;;5042311;28;20476;-69
2022/10/25 01:22:39;;;;;;;2.07;1.97;;;21.40;48.30;;;;;;5040028;28;20455;-65
2022/10/25 01:25:43;;;;;;;2.00;1.90;;;21.40;48.30;;;;;;5040300;28;20601;-65
2022/10/25 01:28:34;;;;;;;2.23;2.13;;;21.40;48.30;;;;;;5033704;28;21017;-63
2022/10/25 01:31:09;;;;;;;2.23;2.00;;;21.40;48.30;;;;;;5038410;28;20513;-67
2022/10/25 01:33:56;;;;;;;2.20;2.00;;;21.40;48.30;;;;;;5039097;28;20454;-67
2022/10/25 01:36:54;;;;;;;2.30;2.10;;;21.40;48.30;;;;;;5041795;28;20432;-67
2022/10/25 01:39:32;;;;;;;2.00;1.80;;;21.40;48.30;;;;;;5037417;28;20456;-69
2022/10/25 01:42:11;;;;;;;2.50;2.30;;;21.40;48.30;;;;;;5038207;28;20451;-60
2022/10/25 01:44:46;;;;;;;1.83;1.73;;;21.40;48.30;;;;;;5040868;28;20895;-70
2022/10/25 01:47:30;;;;;;;1.77;1.67;;;21.40;48.40;;;;;;5040163;28;20478;-69
2022/10/25 01:50:02;;;;;;;2.00;1.90;;;21.40;48.40;;;;;;5038660;28;20977;-62
2022/10/25 01:52:28;;;;;;;1.90;1.70;;;21.40;48.40;;;;;;5036785;28;20451;-66
2022/10/25 01:54:54;;;;;;;2.50;2.07;;;21.40;48.40;;;;;;5044218;28;20462;-69
2022/10/25 01:57:44;;;;;;;2.53;1.77;;;21.40;48.30;;;;;;5038545;28;20233;-66
2022/10/25 02:00:19;;;;;;;1.70;1.60;;;21.40;48.30;;;;;;5038583;28;20214;-65
2022/10/25 02:03:11;;;;;;;2.07;1.97;;;21.40;48.30;;;;;;5039006;28;20433;-69
2022/10/25 02:06:02;;;;;;;2.63;2.43;;;21.40;48.30;;;;;;5034682;28;20493;-66
2022/10/25 02:08:41;;;;;;;2.00;1.80;;;21.40;48.30;;;;;;5039034;28;20451;-64
2022/10/25 02:11:23;;;;;;;2.07;1.97;;;21.40;48.40;;;;;;5032775;28;20512;-66
2022/10/25 02:14:04;;;;;;;2.17;1.97;;;21.40;48.30;;;;;;5038673;28;20919;-63
2022/10/25 02:16:44;;;;;;;2.33;2.13;;;21.40;48.30;;;;;;5032772;28;20491;-64
2022/10/25 02:19:14;;;;;;;2.00;1.90;;;21.40;48.40;;;;;;5039955;28;21164;-70
2022/10/25 02:21:41;;;;;;;2.37;2.23;;;21.30;48.20;;;;;;5039581;28;20516;-69
2022/10/25 02:24:18;;;;;;;2.27;2.00;;;21.40;48.30;;;;;;5041917;28;20443;-67
2022/10/25 02:26:46;;;;;;;2.03;1.93;;;21.30;48.20;;;;;;5037291;28;20506;-69
2022/10/25 02:29:13;;;;;;;2.07;1.87;;;21.40;48.30;;;;;;5040958;28;20451;-60
2022/10/25 02:31:38;;;;;;;2.13;1.70;;;21.40;48.30;;;;;;5035897;28;20526;-58
2022/10/25 02:34:04;;;;;;;1.67;1.57;;;21.40;48.30;;;;;;5028793;28;20519;-69
2022/10/25 02:36:30;;;;;;;1.90;1.80;;;21.40;48.30;;;;;;5032575;28;20304;-67
2022/10/25 02:38:57;;;;;;;2.27;2.07;;;21.40;48.30;;;;;;5040108;28;20233;-67
2022/10/25 02:41:22;;;;;;;1.90;1.80;;;21.40;48.30;;;;;;5034502;28;20297;-69
2022/10/25 02:43:48;;;;;;;2.13;2.00;;;21.40;48.30;;;;;;5040644;28;20459;-67
2022/10/25 02:46:18;;;;;;;1.80;1.67;;;21.40;48.30;;;;;;5036021;28;20222;-67
2022/10/25 02:48:44;;;;;;;1.73;1.63;;;21.40;48.30;;;;;;5037551;28;20308;-68
2022/10/25 02:51:10;;;;;;;2.00;1.80;;;21.40;48.30;;;;;;5035710;28;20526;-65
2022/10/25 02:53:36;;;;;;;1.70;1.60;;;21.40;48.30;;;;;;5041706;28;20240;-67
2022/10/25 02:56:13;;;;;;;2.17;1.70;;;21.30;48.20;;;;;;5037620;28;20976;-68
2022/10/25 02:58:41;;;;;;;2.10;1.90;;;21.40;48.40;;;;;;5039092;28;20210;-58
2022/10/25 03:01:07;;;;;;;1.83;1.47;;;21.40;48.40;;;;;;5035285;28;20551;-70
2022/10/25 03:03:33;;;;;;;1.60;1.50;;;21.40;48.30;;;;;;5037849;28;21001;-65
2022/10/25 03:05:59;;;;;;;2.10;1.93;;;21.40;48.40;;;;;;5038704;28;20969;-69
2022/10/25 03:08:25;;;;;;;1.50;1.40;;;21.30;48.20;;;;;;5039510;28;20475;-67
2022/10/25 03:10:51;;;;;;;2.13;1.70;;;21.40;48.30;;;;;;5038644;28;20865;-68
2022/10/25 03:13:17;;;;;;;3.33;2.10;;;21.40;48.30;;;;;;5039406;28;20585;-66
2022/10/25 03:15:43;;;;;;;1.57;1.47;;;21.40;48.30;;;;;;5038451;28;20217;-69
2022/10/25 03:18:09;;;;;;;1.60;1.50;;;21.40;48.30;;;;;;5041285;28;20312;-68
2022/10/25 03:20:34;;;;;;;1.90;1.70;;;21.40;48.30;;;;;;5039231;28;20562;-69
2022/10/25 03:23:00;;;;;;;1.50;1.40;;;21.40;48.30;;;;;;5036894;28;20731;-67
2022/10/25 03:25:26;;;;;;;2.00;1.80;;;21.40;48.30;;;;;;5039446;28;20657;-69
2022/10/25 03:27:51;;;;;;;1.47;1.37;;;21.40;48.30;;;;;;5020603;28;20687;-59
2022/10/25 03:30:17;;;;;;;1.60;1.50;;;21.40;48.30;;;;;;5037652;28;20279;-62
2022/10/25 03:32:42;;;;;;;1.60;1.50;;;21.40;48.30;;;;;;5035097;28;20258;-69
2022/10/25 03:35:08;;;;;;;1.60;1.50;;;21.30;48.20;;;;;;5039618;28;20348;-66
2022/10/25 03:37:34;;;;;;;1.60;1.50;;;21.30;48.20;;;;;;5037836;28;20289;-67
2022/10/25 03:39:59;;;;;;;1.70;1.60;;;21.30;48.20;;;;;;5037838;28;20993;-58
2022/10/25 03:42:25;;;;;;;1.77;1.67;;;21.30;48.20;;;;;;5039018;28;20237;-64
2022/10/25 03:44:51;;;;;;;1.90;1.80;;;21.40;48.30;;;;;;5032106;28;20222;-66
2022/10/25 03:47:17;;;;;;;1.43;1.33;;;21.40;48.30;;;;;;5035317;28;20241;-67
2022/10/25 03:49:43;;;;;;;1.60;1.40;;;21.30;48.20;;;;;;5032335;28;20451;-67
2022/10/25 03:52:09;;;;;;;2.30;1.50;;;21.40;48.30;;;;;;5030517;28;20472;-70
2022/10/25 03:54:35;;;;;;;2.67;1.93;;;21.30;48.20;;;;;;5037984;28;20221;-70
2022/10/25 03:57:01;;;;;;;2.27;2.07;;;21.30;48.20;;;;;;5038845;28;20530;-69
2022/10/25 03:59:26;;;;;;;2.20;1.50;;;21.30;48.20;;;;;;5040078;28;20641;-64
2022/10/25 04:01:52;;;;;;;1.40;1.30;;;21.30;48.20;;;;;;5030858;28;20264;-66
2022/10/25 04:04:18;;;;;;;1.70;1.60;;;21.30;48.20;;;;;;5039397;28;20238;-65
2022/10/25 04:06:43;;;;;;;1.90;1.80;;;21.30;48.20;;;;;;5037866;28;20750;-69
2022/10/25 04:09:09;;;;;;;1.80;1.53;;;21.30;48.20;;;;;;5037332;28;20446;-65
2022/10/25 04:11:35;;;;;;;1.50;1.40;;;21.30;48.20;;;;;;5036376;28;20308;-68
2022/10/25 04:14:00;;;;;;;1.47;1.37;;;21.30;48.20;;;;;;5035895;28;20206;-69
2022/10/25 04:16:26;;;;;;;1.50;1.40;;;21.30;48.10;;;;;;5034312;28;20301;-62
2022/10/25 04:18:52;;;;;;;1.67;1.57;;;21.30;48.10;;;;;;5038985;28;20315;-65
2022/10/25 04:21:19;;;;;;;1.37;1.27;;;21.30;48.10;;;;;;5039484;28;20257;-63
2022/10/25 04:23:44;;;;;;;1.53;1.43;;;21.40;48.20;;;;;;5033037;28;20443;-66
2022/10/25 04:26:10;;;;;;;1.77;1.60;;;21.30;48.10;;;;;;5034929;28;20456;-67
2022/10/25 04:28:35;;;;;;;1.23;1.10;;;21.40;48.20;;;;;;5037374;28;20245;-65
2022/10/25 04:31:02;;;;;;;1.20;1.10;;;21.40;48.20;;;;;;5038215;28;20344;-66
2022/10/25 04:33:28;;;;;;;2.17;1.83;;;21.40;48.10;;;;;;5036555;28;20264;-62
2022/10/25 04:35:55;;;;;;;1.70;1.60;;;21.40;48.10;;;;;;5037939;28;20563;-68
2022/10/25 04:38:21;;;;;;;1.30;1.20;;;21.40;48.10;;;;;;5037084;28;20257;-68
2022/10/25 04:40:58;;;;;;;1.60;1.50;;;21.40;48.00;;;;;;5034836;28;20442;-68
2022/10/25 04:43:25;;;;;;;1.57;1.43;;;21.40;48.00;;;;;;5032246;28;20435;-71
2022/10/25 04:45:52;;;;;;;1.90;1.33;;;21.40;48.00;;;;;;5036320;28;20950;-70
2022/10/25 04:48:17;;;;;;;1.40;1.30;;;21.40;48.00;;;;;;5030354;28;20451;-60
2022/10/25 04:50:43;;;;;;;1.73;1.50;;;21.40;47.90;;;;;;5036960;28;20467;-65
2022/10/25 04:53:08;;;;;;;1.77;1.40;;;21.40;48.00;;;;;;5036673;28;20337;-66
2022/10/25 04:55:34;;;;;;;1.43;1.27;;;21.40;48.00;;;;;;5036900;28;20220;-62
2022/10/25 04:58:00;;;;;;;2.50;1.30;;;21.40;48.00;;;;;;5034114;28;20318;-60
2022/10/25 05:00:25;;;;;;;1.60;1.50;;;21.40;48.00;;;;;;5036324;28;20886;-62
2022/10/25 05:02:52;;;;;;;1.60;1.50;;;21.40;48.00;;;;;;5035689;28;20218;-66
2022/10/25 05:05:18;;;;;;;1.63;1.53;;;21.40;48.00;;;;;;5035882;28;20329;-66
2022/10/25 05:07:44;;;;;;;1.77;1.40;;;21.40;48.00;;;;;;5036117;28;20873;-65
2022/10/25 05:10:10;;;;;;;3.10;1.43;;;21.40;48.00;;;;;;5035405;28;20501;-64
2022/10/25 05:12:36;;;;;;;2.37;1.83;;;21.40;48.10;;;;;;5037732;28;20222;-66
2022/10/25 05:15:03;;;;;;;1.60;1.50;;;21.40;48.00;;;;;;5032683;28;20785;-67
2022/10/25 05:17:28;;;;;;;1.60;1.50;;;21.40;48.10;;;;;;5035305;28;20458;-65
2022/10/25 05:19:54;;;;;;;2.17;1.60;;;21.40;48.10;;;;;;5038882;28;20459;-66
2022/10/25 05:22:19;;;;;;;1.80;1.70;;;21.40;48.10;;;;;;5035520;28;20280;-62
2022/10/25 05:24:45;;;;;;;2.60;1.70;;;21.40;48.10;;;;;;5033977;28;20218;-74
2022/10/25 05:27:10;;;;;;;1.73;1.63;;;21.40;48.10;;;;;;5022062;28;20869;-66
2022/10/25 05:29:36;;;;;;;1.50;1.40;;;21.40;48.20;;;;;;5028577;28;20484;-63
2022/10/25 05:32:02;;;;;;;1.60;1.50;;;21.40;48.10;;;;;;5033601;28;20223;-66
2022/10/25 05:34:28;;;;;;;2.73;1.60;;;21.40;48.10;;;;;;5035149;28;20226;-64
2022/10/25 05:36:54;;;;;;;1.60;1.50;;;21.40;48.10;;;;;;5036862;28;20462;-66
2022/10/25 05:39:19;;;;;;;2.27;1.70;;;21.40;48.10;;;;;;5042354;28;20256;-66
2022/10/25 05:41:45;;;;;;;2.60;1.70;;;21.40;48.10;;;;;;5039466;28;20611;-69
2022/10/25 05:44:10;;;;;;;2.07;1.73;;;21.40;48.10;;;;;;5042815;28;20284;-66
2022/10/25 05:46:36;;;;;;;1.80;1.70;;;21.40;48.10;;;;;;5036077;28;20253;-68
2022/10/25 05:49:02;;;;;;;1.97;1.50;;;21.40;48.10;;;;;;5044927;28;20214;-63
2022/10/25 05:51:30;;;;;;;1.70;1.60;;;21.40;48.10;;;;;;5041348;28;20776;-63
2022/10/25 05:53:57;;;;;;;2.73;1.67;;;21.40;48.10;;;;;;5043195;28;20457;-65
2022/10/25 05:56:25;;;;;;;2.03;1.50;;;21.40;48.10;;;;;;5040370;28;20451;-66
2022/10/25 05:58:51;;;;;;;1.83;1.73;;;21.40;48.20;;;;;;5042580;28;20445;-69
2022/10/25 06:01:20;;;;;;;1.73;1.60;;;21.40;48.10;;;;;;5039910;28;20459;-63
2022/10/25 06:03:50;;;;;;;2.80;1.53;;;21.40;48.20;;;;;;5040309;28;20248;-68
2022/10/25 06:06:16;;;;;;;1.60;1.50;;;21.40;48.20;;;;;;5037980;28;20538;-69
2022/10/25 06:08:41;;;;;;;1.90;1.70;;;21.40;48.20;;;;;;5025087;28;20493;-66
2022/10/25 06:11:10;;;;;;;2.10;1.50;;;21.40;48.10;;;;;;5034201;28;20253;-63
2022/10/25 06:13:36;;;;;;;2.00;1.80;;;21.40;48.10;;;;;;5036599;28;20230;-68
2022/10/25 06:16:04;;;;;;;1.63;1.53;;;21.40;48.20;;;;;;5031237;28;20463;-69
2022/10/25 06:18:29;;;;;;;2.03;1.93;;;21.40;48.10;;;;;;5040054;28;20455;-69
2022/10/25 06:20:55;;;;;;;1.70;1.60;;;21.40;48.20;;;;;;5038197;28;20459;-65
2022/10/25 06:23:20;;;;;;;1.70;1.60;;;21.40;48.10;;;;;;5029770;28;20233;-69
2022/10/25 06:25:46;;;;;;;2.10;2.00;;;21.40;48.10;;;;;;5037001;28;20653;-62
2022/10/25 06:28:11;;;;;;;2.07;1.97;;;21.40;48.10;;;;;;5039122;28;20682;-65
2022/10/25 06:30:37;;;;;;;1.80;1.70;;;21.40;48.10;;;;;;5036082;28;20218;-66
2022/10/25 06:33:02;;;;;;;1.73;1.63;;;21.40;48.10;;;;;;5040470;28;20225;-60
2022/10/25 06:35:28;;;;;;;2.00;1.90;;;21.40;48.10;;;;;;5036820;28;20854;-63
2022/10/25 06:38:00;;;;;;;1.90;1.50;;;21.40;48.20;;;;;;5032723;28;20233;-66
2022/10/25 06:40:26;;;;;;;2.53;1.50;;;21.40;48.10;;;;;;5035914;28;20252;-69
2022/10/25 06:42:55;;;;;;;2.00;1.87;;;21.40;48.10;;;;;;5038496;28;20849;-68
2022/10/25 06:45:22;;;;;;;2.07;1.87;;;21.40;48.10;;;;;;5036470;28;20297;-66
2022/10/25 06:47:48;;;;;;;1.70;1.60;;;21.40;48.10;;;;;;5039232;28;20463;-68
2022/10/25 06:50:14;;;;;;;2.00;1.80;;;21.40;48.10;;;;;;5034229;28;21063;-66
2022/10/25 06:52:39;;;;;;;1.63;1.53;;;21.40;48.10;;;;;;5041830;28;20224;-65
2022/10/25 06:55:05;;;;;;;2.13;1.60;;;21.40;48.10;;;;;;5036981;28;20219;-67
2022/10/25 06:57:30;;;;;;;1.50;1.40;;;21.40;48.10;;;;;;5027794;28;20222;-61
2022/10/25 06:59:56;;;;;;;1.60;1.50;;;21.40;48.10;;;;;;5038248;28;20689;-67
2022/10/25 07:02:21;;;;;;;1.80;1.70;;;21.40;48.10;;;;;;5036047;28;20683;-68
2022/10/25 07:04:47;;;;;;;1.60;1.50;;;21.40;48.10;;;;;;5035230;28;20238;-62
2022/10/25 07:07:13;;;;;;;2.13;1.90;;;21.40;48.10;;;;;;5038067;28;20245;-64
2022/10/25 07:09:39;;;;;;;1.50;1.40;;;21.40;48.20;;;;;;5027586;28;20222;-67
2022/10/25 07:12:05;;;;;;;1.87;1.77;;;21.40;48.20;;;;;;5035229;28;20446;-64
2022/10/25 07:14:31;;;;;;;2.47;1.60;;;21.40;48.10;;;;;;5039926;28;20461;-65
2022/10/25 07:16:56;;;;;;;1.60;1.50;;;21.40;48.10;;;;;;5034727;28;20218;-64
2022/10/25 07:19:23;;;;;;;1.77;1.57;;;21.40;48.10;;;;;;5037729;28;20279;-66
2022/10/25 07:21:49;;;;;;;1.80;1.70;;;21.40;48.10;;;;;;5035481;28;20428;-66
2022/10/25 07:24:15;;;;;;;4.30;1.50;;;21.40;48.20;;;;;;5036094;28;20805;-68
2022/10/25 07:26:41;;;;;;;1.80;1.70;;;21.40;48.10;;;;;;5035837;28;21039;-64
2022/10/25 07:29:07;;;;;;;2.20;1.83;;;21.40;48.10;;;;;;5035579;28;20542;-61
2022/10/25 07:31:39;;;;;;;1.40;1.30;;;21.40;48.20;;;;;;5035886;28;20606;-64
2022/10/25 07:34:05;;;;;;;1.33;1.23;;;21.40;48.10;;;;;;5032746;28;20242;-66
2022/10/25 07:36:31;;;;;;;1.50;1.40;;;21.40;48.20;;;;;;5039852;28;21029;-67
2022/10/25 07:38:57;;;;;;;2.13;2.03;;;21.40;48.10;;;;;;5040071;28;20214;-68
2022/10/25 07:41:23;;;;;;;1.63;1.53;;;21.40;48.10;;;;;;5038058;28;20232;-66
2022/10/25 07:43:49;;;;;;;1.50;1.40;;;21.40;48.20;;;;;;5034912;28;20274;-62
2022/10/25 07:46:15;;;;;;;1.60;1.50;;;21.40;48.20;;;;;;5036583;28;20847;-60
2022/10/25 07:48:40;;;;;;;1.40;1.30;;;21.40;48.20;;;;;;5037638;28;20229;-69
2022/10/25 07:51:09;;;;;;;1.87;1.67;;;21.40;48.20;;;;;;5038479;28;20218;-61
2022/10/25 07:53:35;;;;;;;1.30;1.20;;;21.40;48.20;;;;;;5040504;28;20693;-65
2022/10/25 07:56:01;;;;;;;2.00;1.80;;;21.40;48.20;;;;;;5037359;28;20461;-67
2022/10/25 07:58:26;;;;;;;1.70;1.40;;;21.40;48.20;;;;;;5039024;28;20227;-69
2022/10/25 08:00:58;;;;;;;2.10;1.50;;;21.40;48.20;;;;;;5034426;28;20871;-68
2022/10/25 08:03:23;;;;;;;1.40;1.30;;;21.40;48.20;;;;;;5041420;28;20321;-68
2022/10/25 08:05:49;;;;;;;2.00;1.20;;;21.40;48.20;;;;;;5042585;28;20492;-64
2022/10/25 08:08:14;;;;;;;1.70;1.60;;;21.40;48.20;;;;;;5043256;28;20938;-69
2022/10/25 08:10:41;;;;;;;1.60;1.40;;;21.40;48.20;;;;;;5041839;28;20268;-62
2022/10/25 08:13:07;;;;;;;1.87;1.30;;;21.40;48.20;;;;;;5043586;28;20300;-63
2022/10/25 08:15:34;;;;;;;1.60;1.50;;;21.40;48.20;;;;;;5044697;28;20465;-64
2022/10/25 08:18:01;;;;;;;1.47;1.37;;;21.40;48.20;;;;;;5042771;28;20594;-65
2022/10/25 08:20:27;;;;;;;1.50;1.40;;;21.40;48.20;;;;;;5041990;28;20513;-67
2022/10/25 08:22:59;;;;;;;1.50;1.40;;;21.40;48.20;;;;;;5043653;28;20918;-66
2022/10/25 08:25:25;;;;;;;1.60;1.50;;;21.40;48.20;;;;;;5044091;28;20218;-60
2022/10/25 08:27:51;;;;;;;2.07;1.63;;;21.40;48.20;;;;;;5043738;28;21006;-63
2022/10/25 08:30:16;;;;;;;1.73;1.40;;;21.40;48.20;;;;;;5043077;28;20533;-66
2022/10/25 08:32:42;;;;;;;1.50;1.30;;;21.40;48.20;;;;;;5044755;28;20244;-65
2022/10/25 08:35:08;;;;;;;1.70;1.60;;;21.40;48.20;;;;;;5044767;28;20688;-65
2022/10/25 08:37:33;;;;;;;1.80;1.70;;;21.40;48.20;;;;;;5041012;28;20250;-67
2022/10/25 08:39:58;;;;;;;1.30;1.20;;;21.40;48.30;;;;;;5043400;28;20304;-65
2022/10/25 08:42:28;;;;;;;1.83;1.73;;;21.40;48.20;;;;;;5041901;28;20240;-65
2022/10/25 08:45:27;;;;;;;1.30;1.20;;;21.40;48.20;;;;;;5042073;28;20329;-60
2022/10/25 08:47:55;;;;;;;1.40;1.30;;;21.40;48.20;;;;;;5008458;28;20512;-66
2022/10/25 08:50:46;;;;;;;1.70;1.60;;;21.40;48.30;;;;;;5036814;28;20456;-67
2022/10/25 08:53:26;;;;;;;1.87;1.40;;;21.40;48.30;;;;;;5042336;28;21077;-68
2022/10/25 08:55:53;;;;;;;1.50;1.40;;;21.40;48.20;;;;;;5036249;28;20965;-68
2022/10/25 08:58:27;;;;;;;1.53;1.20;;;21.40;48.20;;;;;;5042388;28;20459;-66
2022/10/25 09:00:53;;;;;;;1.60;1.20;;;21.40;48.30;;;;;;5043281;28;21121;-66
2022/10/25 09:03:24;;;;;;;1.57;1.47;;;21.40;48.30;;;;;;5037754;28;20471;-58
2022/10/25 09:06:04;;;;;;;1.30;1.20;;;21.40;48.30;;;;;;5038612;28;20469;-67
2022/10/25 09:08:57;;;;;;;1.40;1.30;;;21.40;48.30;;;;;;5037107;28;20494;-62
2022/10/25 09:11:40;;;;;;;1.90;1.47;;;21.40;48.30;;;;;;5037513;28;20477;-68
2022/10/25 09:14:23;;;;;;;1.93;1.23;;;21.40;48.30;;;;;;5037306;28;20479;-65
2022/10/25 09:16:51;;;;;;;1.50;1.40;;;21.40;48.30;;;;;;5035263;28;20467;-62
2022/10/25 09:19:32;;;;;;;1.93;1.33;;;21.40;48.40;;;;;;5038878;28;20455;-67
2022/10/25 09:22:16;;;;;;;1.33;1.23;;;21.40;48.30;;;;;;5039567;28;21326;-66
2022/10/25 09:25:05;;;;;;;2.03;1.27;;;21.40;48.30;;;;;;5032429;28;20443;-60
2022/10/25 09:27:42;;;;;;;1.40;1.27;;;21.40;48.40;;;;;;5034949;28;20485;-65
2022/10/25 09:30:10;;;;;;;1.60;1.50;;;21.40;48.30;;;;;;5038305;28;20446;-63
2022/10/25 09:32:43;;;;;;;1.50;1.40;;;21.40;48.30;;;;;;5053435;28;20467;-65
2022/10/25 09:35:16;;;;;;;1.73;1.63;;;21.40;48.30;;;;;;5034773;28;20545;-61
2022/10/25 09:37:48;;;;;;;1.50;1.40;;;21.40;48.30;;;;;;5029504;28;20466;-67
2022/10/25 09:40:28;;;;;;;1.40;1.30;;;21.40;48.30;;;;;;5035889;28;20463;-64
2022/10/25 09:42:57;;;;;;;1.40;1.30;;;21.40;48.30;;;;;;5037975;28;20469;-66
2022/10/25 09:45:49;;;;;;;1.43;1.30;;;21.40;48.30;;;;;;5034697;28;20783;-64
2022/10/25 09:48:17;;;;;;;1.30;1.20;;;21.40;48.30;;;;;;5039080;28;20985;-65
2022/10/25 09:50:59;;;;;;;1.70;1.50;;;21.40;48.30;;;;;;5034182;28;20453;-61
2022/10/25 09:53:25;;;;;;;1.50;1.40;;;21.40;48.30;;;;;;5038217;28;20816;-68
2022/10/25 09:55:56;;;;;;;1.50;1.40;;;21.40;48.30;;;;;;5038798;28;20954;-65
2022/10/25 09:58:25;;;;;;;1.30;1.20;;;21.40;48.40;;;;;;5037994;28;20222;-66
2022/10/25 10:00:54;;;;;;;3.60;1.33;;;21.40;48.30;;;;;;5036748;28;20486;-67
2022/10/25 10:03:20;;;;;;;1.13;1.03;;;21.40;48.30;;;;;;5030620;28;20433;-65
2022/10/25 10:05:55;;;;;;;1.47;1.37;;;21.50;48.40;;;;;;5037910;28;20541;-65
2022/10/25 10:08:22;;;;;;;1.47;1.37;;;21.40;48.30;;;;;;5029561;28;20468;-64
2022/10/25 10:10:49;;;;;;;1.30;1.20;;;21.50;48.40;;;;;;5025697;28;20538;-68
2022/10/25 10:13:35;;;;;;;1.57;1.00;;;21.50;48.50;;;;;;5037713;28;20475;-67
2022/10/25 10:16:15;;;;;;;1.30;1.20;;;21.50;48.50;;;;;;5031831;28;20470;-68
2022/10/25 10:18:42;;;;;;;2.53;1.30;;;21.50;48.40;;;;;;5034253;28;20962;-64
2022/10/25 10:21:13;;;;;;;1.40;1.30;;;21.40;48.50;;;;;;5038654;28;21193;-63
2022/10/25 10:24:01;;;;;;;1.40;1.30;;;21.50;48.50;;;;;;5033699;28;20987;-61
2022/10/25 10:26:42;;;;;;;1.73;1.27;;;21.50;48.50;;;;;;5035003;28;20446;-66
2022/10/25 10:29:07;;;;;;;1.30;1.20;;;21.50;48.50;;;;;;5039491;28;20471;-62
2022/10/25 10:31:36;;;;;;;1.20;1.10;;;21.50;48.50;;;;;;5034362;28;21057;-67
2022/10/25 10:34:02;;;;;;;1.30;1.20;;;21.50;48.60;;;;;;5035024;28;20218;-66
2022/10/25 10:36:29;;;;;;;1.30;1.20;;;21.50;48.50;;;;;;5032046;28;20471;-60
2022/10/25 10:39:21;;;;;;;1.33;1.23;;;21.50;48.50;;;;;;5033633;28;20475;-65
2022/10/25 10:42:14;;;;;;;1.47;1.37;;;21.50;48.50;;;;;;5030845;28;20592;-64
2022/10/25 10:44:39;;;;;;;1.37;1.27;;;21.50;48.50;;;;;;5002017;28;20950;-67
2022/10/25 10:47:19;;;;;;;1.30;1.20;;;21.50;48.50;;;;;;5032237;28;20581;-62
2022/10/25 10:49:46;;;;;;;1.27;1.17;;;21.50;48.50;;;;;;5031536;28;20222;-60
2022/10/25 10:52:29;;;;;;;1.43;1.17;;;21.50;48.50;;;;;;5028070;28;20463;-64
2022/10/25 10:54:55;;;;;;;1.10;1.00;;;21.50;48.50;;;;;;5034151;28;20517;-61
2022/10/25 10:57:33;;;;;;;1.20;1.10;;;21.50;48.50;;;;;;5031429;28;21310;-63
2022/10/25 11:00:01;;;;;;;1.43;1.33;;;21.50;48.50;;;;;;5031473;28;20467;-64
2022/10/25 11:02:40;;;;;;;1.20;1.07;;;21.50;48.50;;;;;;5031625;28;20470;-59
2022/10/25 11:05:23;;;;;;;1.20;1.10;;;21.50;48.50;;;;;;5032330;28;20485;-65
2022/10/25 11:08:08;;;;;;;1.30;1.20;;;21.50;48.50;;;;;;5032473;28;20471;-58
2022/10/25 11:10:38;;;;;;;1.10;1.00;;;21.50;48.50;;;;;;5028950;28;20479;-60
2022/10/25 11:13:16;;;;;;;1.17;1.07;;;21.50;48.40;;;;;;5034913;28;20995;-59
2022/10/25 11:15:55;;;;;;;1.33;1.23;;;21.50;48.50;;;;;;5032617;28;21178;-66
2022/10/25 11:18:38;;;;;;;1.27;1.00;;;21.50;48.50;;;;;;5032178;28;20735;-63
2022/10/25 11:21:34;;;;;;;2.40;1.00;;;21.50;48.50;;;;;;5031269;28;20460;-66
2022/10/25 11:24:16;;;;;;;1.20;1.10;;;21.50;48.50;;;;;;5031802;28;20805;-61
2022/10/25 11:26:58;;;;;;;1.97;1.10;;;21.50;48.40;;;;;;5030448;28;20550;-68
2022/10/25 11:29:44;;;;;;;1.30;1.20;;;21.50;48.40;;;;;;5032471;28;20510;-65
2022/10/25 11:32:22;;;;;;;1.97;1.87;;;21.50;48.40;;;;;;5031746;28;20591;-59
2022/10/25 11:35:08;;;;;;;1.17;1.07;;;21.50;48.40;;;;;;5030977;28;20803;-64
2022/10/25 11:37:54;;;;;;;1.30;1.20;;;21.50;48.50;;;;;;5034814;28;20462;-61
2022/10/25 11:40:24;;;;;;;2.00;1.30;;;21.50;48.40;;;;;;5029253;28;20497;-61
2022/10/25 11:43:23;;;;;;;1.50;1.40;;;21.50;48.50;;;;;;5033014;28;20451;-65
2022/10/25 11:46:03;;;;;;;1.30;1.20;;;21.50;48.40;;;;;;5032666;28;20451;-62
2022/10/25 11:48:58;;;;;;;1.20;1.10;;;21.60;48.50;;;;;;5030272;28;20554;-65
2022/10/25 11:51:42;;;;;;;1.60;1.50;;;21.50;48.40;;;;;;5018697;28;20471;-61
2022/10/25 11:54:33;;;;;;;1.20;1.10;;;21.50;48.40;;;;;;5032872;28;20473;-63
2022/10/25 11:57:16;;;;;;;1.40;1.30;;;21.60;48.50;;;;;;5031208;28;20475;-68
2022/10/25 11:59:59;;;;;;;1.30;1.20;;;21.60;48.60;;;;;;5027765;28;20494;-67
2022/10/25 12:02:43;;;;;;;1.10;1.00;;;21.60;48.50;;;;;;5026125;28;20470;-66
2022/10/25 12:05:24;;;;;;;1.23;1.13;;;21.60;48.50;;;;;;5029114;28;20978;-66
2022/10/25 12:08:05;;;;;;;1.33;1.23;;;21.60;48.50;;;;;;5026659;28;20459;-61
2022/10/25 12:10:38;;;;;;;1.40;1.30;;;21.60;48.50;;;;;;5026838;28;20963;-65
2022/10/25 12:13:15;;;;;;;1.77;1.27;;;21.60;48.50;;;;;;5027379;28;20448;-65
2022/10/25 12:15:47;;;;;;;1.30;1.10;;;21.60;48.50;;;;;;5030163;28;20466;-60
2022/10/25 12:18:38;;;;;;;1.10;1.00;;;21.60;48.50;;;;;;5029356;28;20492;-60
2022/10/25 12:21:06;;;;;;;1.10;1.00;;;21.60;48.50;;;;;;5020475;28;20514;-64
2022/10/25 12:23:41;;;;;;;1.10;1.00;;;21.60;48.50;;;;;;5033420;28;20462;-65
2022/10/25 12:26:27;;;;;;;1.03;1.00;;;21.60;49.20;;;;;;5029963;28;20470;-64
2022/10/25 12:28:54;;;;;;;1.10;1.00;;;21.60;48.50;;;;;;5027681;28;20486;-61
2022/10/25 12:31:26;;;;;;;1.10;1.00;;;21.60;48.50;;;;;;5011177;28;20471;-63
2022/10/25 12:33:59;;;;;;;1.40;1.20;;;21.60;48.50;;;;;;5028840;28;20966;-61
2022/10/25 12:36:31;;;;;;;1.30;1.20;;;21.60;48.50;;;;;;5026548;28;20972;-67
2022/10/25 12:39:00;;;;;;;1.17;1.07;;;21.60;48.50;;;;;;5027746;28;20545;-66
2022/10/25 12:41:33;;;;;;;1.60;1.10;;;21.60;48.50;;;;;;5025718;28;20993;-67
2022/10/25 12:44:06;;;;;;;1.37;1.27;;;21.60;48.50;;;;;;5029908;28;20425;-67
2022/10/25 12:46:52;;;;;;;0.93;0.90;;;21.60;48.50;;;;;;5026079;28;20951;-65
2022/10/25 12:49:43;;;;;;;1.00;1.00;;;21.60;48.40;;;;;;5023836;28;20525;-59
2022/10/25 12:52:27;;;;;;;1.07;0.97;;;21.60;48.40;;;;;;5045031;28;20486;-61
2022/10/25 12:55:24;;;;;;;2.10;1.30;;;21.60;48.40;;;;;;5028647;28;20479;-60
2022/10/25 12:58:24;;;;;;;1.40;1.30;;;21.60;48.50;;;;;;5025981;28;20965;-66
2022/10/25 13:01:25;;;;;;;1.27;1.17;;;21.60;48.50;;;;;;5028089;28;20562;-61
2022/10/25 13:04:18;;;;;;;1.40;0.90;;;21.60;48.50;;;;;;5030252;28;20478;-66
2022/10/25 13:06:46;;;;;;;0.80;0.80;;;21.50;48.40;;;;;;5029411;28;20479;-60
2022/10/25 13:09:18;;;;;;;1.10;1.00;;;21.60;48.60;;;;;;5025936;28;20463;-67
2022/10/25 13:11:54;;;;;;;1.00;0.90;;;21.60;48.50;;;;;;5028428;28;20458;-57